sensor_id;sensor_type;location;lat;lon;timestamp;P1;durP1;ratioP1;P2;durP2;ratioP2
20945;SDS011;10632;51.276;7.116;2023-07-31T00:01:57;7.00;;;1.80;;
20945;SDS011;10632;51.276;7.116;2023-07-31T00:04:24;6.63;;;1.83;;
20945;SDS011;10632;51.276;7.116;2023-07-31T00:06:50;7.65;;;1.73;;
20945;SDS011;10632;51.276;7.116;2023-07-31T00:09:17;4.72;;;1.45;;
20945;SDS011;10632;51.276;7.116;2023-07-31T00:11:47;5.72;;;1.58;;
20945;SDS011;10632;51.276;7.116;2023-07-31T00:14:14;10.98;;;2.22;;
20945;SDS011;10632;51.276;7.116;2023-07-31T00:16:43;5.53;;;1.70;;
20945;SDS011;10632;51.276;7.116;2023-07-31T00:19:12;5.68;;;1.55;;
20945;SDS011;10632;51.276;7.116;2023-07-31T00:21:39;5.30;;;1.75;;
20945;SDS011;10632;51.276;7.116;2023-07-31T00:24:06;7.13;;;1.85;;
20945;SDS011;10632;51.276;7.116;2023-07-31T00:26:35;6.25;;;1.85;;
20945;SDS011;10632;51.276;7.116;2023-07-31T00:29:02;9.02;;;2.08;;
20945;SDS011;10632;51.276;7.116;2023-07-31T00:31:29;7.03;;;1.67;;
20945;SDS011;10632;51.276;7.116;2023-07-31T00:33:57;6.47;;;1.60;;
20945;SDS011;10632;51.276;7.116;2023-07-31T00:36:24;3.78;;;1.38;;
20945;SDS011;10632;51.276;7.116;2023-07-31T00:38:51;6.78;;;1.60;;
20945;SDS011;10632;51.276;7.116;2023-07-31T00:41:18;7.32;;;1.70;;
20945;SDS011;10632;51.276;7.116;2023-07-31T00:43:47;9.38;;;2.03;;
20945;SDS011;10632;51.276;7.116;2023-07-31T00:46:14;4.78;;;1.67;;
20945;SDS011;10632;51.276;7.116;2023-07-31T00:48:41;5.47;;;2.00;;
20945;SDS011;10632;51.276;7.116;2023-07-31T00:51:10;8.82;;;1.52;;
20945;SDS011;10632;51.276;7.116;2023-07-31T00:53:37;8.43;;;2.10;;
20945;SDS011;10632;51.276;7.116;2023-07-31T00:56:04;5.97;;;1.80;;
20945;SDS011;10632;51.276;7.116;2023-07-31T00:58:32;8.95;;;2.00;;
20945;SDS011;10632;51.276;7.116;2023-07-31T01:00:59;5.57;;;1.80;;
20945;SDS011;10632;51.276;7.116;2023-07-31T01:03:26;4.68;;;1.55;;
20945;SDS011;10632;51.276;7.116;2023-07-31T01:05:55;11.38;;;1.83;;
20945;SDS011;10632;51.276;7.116;2023-07-31T01:08:36;5.30;;;1.63;;
20945;SDS011;10632;51.276;7.116;2023-07-31T01:11:07;7.32;;;1.50;;
20945;SDS011;10632;51.276;7.116;2023-07-31T01:13:40;6.40;;;1.63;;
20945;SDS011;10632;51.276;7.116;2023-07-31T01:16:08;4.82;;;1.45;;
20945;SDS011;10632;51.276;7.116;2023-07-31T01:18:35;6.28;;;1.65;;
20945;SDS011;10632;51.276;7.116;2023-07-31T01:21:03;5.90;;;1.67;;
20945;SDS011;10632;51.276;7.116;2023-07-31T01:24:01;6.78;;;1.58;;
20945;SDS011;10632;51.276;7.116;2023-07-31T01:26:52;6.18;;;1.63;;
20945;SDS011;10632;51.276;7.116;2023-07-31T01:29:26;5.20;;;1.50;;
20945;SDS011;10632;51.276;7.116;2023-07-31T01:31:59;6.95;;;1.80;;
20945;SDS011;10632;51.276;7.116;2023-07-31T01:34:29;6.40;;;1.88;;
20945;SDS011;10632;51.276;7.116;2023-07-31T01:36:57;7.68;;;1.40;;
20945;SDS011;10632;51.276;7.116;2023-07-31T01:39:24;8.43;;;1.85;;
20945;SDS011;10632;51.276;7.116;2023-07-31T01:41:52;4.13;;;1.30;;
20945;SDS011;10632;51.276;7.116;2023-07-31T01:44:19;4.85;;;1.65;;
20945;SDS011;10632;51.276;7.116;2023-07-31T01:46:47;6.85;;;1.70;;
20945;SDS011;10632;51.276;7.116;2023-07-31T01:49:14;7.18;;;1.80;;
20945;SDS011;10632;51.276;7.116;2023-07-31T01:51:41;5.47;;;1.60;;
20945;SDS011;10632;51.276;7.116;2023-07-31T01:54:11;7.88;;;2.38;;
20945;SDS011;10632;51.276;7.116;2023-07-31T01:56:38;3.53;;;1.40;;
20945;SDS011;10632;51.276;7.116;2023-07-31T01:59:06;7.55;;;1.50;;
20945;SDS011;10632;51.276;7.116;2023-07-31T02:01:33;6.28;;;1.58;;
20945;SDS011;10632;51.276;7.116;2023-07-31T02:04:00;10.98;;;1.60;;
20945;SDS011;10632;51.276;7.116;2023-07-31T02:06:27;4.15;;;1.35;;
20945;SDS011;10632;51.276;7.116;2023-07-31T02:08:55;7.00;;;1.50;;
20945;SDS011;10632;51.276;7.116;2023-07-31T02:11:22;5.50;;;1.25;;
20945;SDS011;10632;51.276;7.116;2023-07-31T02:13:48;6.05;;;1.50;;
20945;SDS011;10632;51.276;7.116;2023-07-31T02:16:17;11.10;;;1.40;;
20945;SDS011;10632;51.276;7.116;2023-07-31T02:18:44;9.43;;;1.42;;
20945;SDS011;10632;51.276;7.116;2023-07-31T02:21:10;7.40;;;1.52;;
20945;SDS011;10632;51.276;7.116;2023-07-31T02:23:37;6.72;;;1.48;;
20945;SDS011;10632;51.276;7.116;2023-07-31T02:26:04;8.80;;;1.65;;
20945;SDS011;10632;51.276;7.116;2023-07-31T02:28:31;7.70;;;1.92;;
20945;SDS011;10632;51.276;7.116;2023-07-31T02:30:58;5.13;;;1.50;;
20945;SDS011;10632;51.276;7.116;2023-07-31T02:33:26;6.78;;;1.83;;
20945;SDS011;10632;51.276;7.116;2023-07-31T02:35:53;4.00;;;1.55;;
20945;SDS011;10632;51.276;7.116;2023-07-31T02:38:20;7.45;;;1.67;;
20945;SDS011;10632;51.276;7.116;2023-07-31T02:40:47;4.78;;;1.58;;
20945;SDS011;10632;51.276;7.116;2023-07-31T02:43:14;3.72;;;1.20;;
20945;SDS011;10632;51.276;7.116;2023-07-31T02:45:41;4.80;;;1.63;;
20945;SDS011;10632;51.276;7.116;2023-07-31T02:48:07;4.43;;;1.60;;
20945;SDS011;10632;51.276;7.116;2023-07-31T02:50:36;5.30;;;1.50;;
20945;SDS011;10632;51.276;7.116;2023-07-31T02:53:03;8.18;;;1.70;;
20945;SDS011;10632;51.276;7.116;2023-07-31T02:55:30;6.47;;;1.67;;
20945;SDS011;10632;51.276;7.116;2023-07-31T02:57:57;5.45;;;1.50;;
20945;SDS011;10632;51.276;7.116;2023-07-31T03:00:24;4.35;;;1.10;;
20945;SDS011;10632;51.276;7.116;2023-07-31T03:02:51;3.75;;;1.35;;
20945;SDS011;10632;51.276;7.116;2023-07-31T03:05:18;6.45;;;1.80;;
20945;SDS011;10632;51.276;7.116;2023-07-31T03:07:46;8.82;;;1.80;;
20945;SDS011;10632;51.276;7.116;2023-07-31T03:10:13;5.25;;;1.50;;
20945;SDS011;10632;51.276;7.116;2023-07-31T03:12:40;5.03;;;1.35;;
20945;SDS011;10632;51.276;7.116;2023-07-31T03:15:07;10.05;;;1.90;;
20945;SDS011;10632;51.276;7.116;2023-07-31T03:17:35;7.53;;;1.55;;
20945;SDS011;10632;51.276;7.116;2023-07-31T03:20:02;6.32;;;1.58;;
20945;SDS011;10632;51.276;7.116;2023-07-31T03:22:30;8.18;;;1.80;;
20945;SDS011;10632;51.276;7.116;2023-07-31T03:24:58;7.68;;;1.65;;
20945;SDS011;10632;51.276;7.116;2023-07-31T03:27:25;6.20;;;1.73;;
20945;SDS011;10632;51.276;7.116;2023-07-31T03:29:52;8.70;;;2.08;;
20945;SDS011;10632;51.276;7.116;2023-07-31T03:32:19;5.43;;;1.98;;
20945;SDS011;10632;51.276;7.116;2023-07-31T03:34:46;11.65;;;1.80;;
20945;SDS011;10632;51.276;7.116;2023-07-31T03:37:13;5.32;;;1.75;;
20945;SDS011;10632;51.276;7.116;2023-07-31T03:39:40;8.38;;;2.00;;
20945;SDS011;10632;51.276;7.116;2023-07-31T03:42:11;5.80;;;1.75;;
20945;SDS011;10632;51.276;7.116;2023-07-31T03:44:38;5.68;;;1.83;;
20945;SDS011;10632;51.276;7.116;2023-07-31T03:47:05;8.98;;;1.75;;
20945;SDS011;10632;51.276;7.116;2023-07-31T03:49:32;5.57;;;1.63;;
20945;SDS011;10632;51.276;7.116;2023-07-31T03:51:59;9.93;;;1.73;;
20945;SDS011;10632;51.276;7.116;2023-07-31T03:54:26;9.73;;;1.55;;
20945;SDS011;10632;51.276;7.116;2023-07-31T03:56:53;6.28;;;1.75;;
20945;SDS011;10632;51.276;7.116;2023-07-31T03:59:22;10.02;;;1.80;;
20945;SDS011;10632;51.276;7.116;2023-07-31T04:01:49;7.50;;;1.75;;
20945;SDS011;10632;51.276;7.116;2023-07-31T04:04:19;4.88;;;1.63;;
20945;SDS011;10632;51.276;7.116;2023-07-31T04:06:46;7.32;;;1.83;;
20945;SDS011;10632;51.276;7.116;2023-07-31T04:09:13;7.30;;;1.95;;
20945;SDS011;10632;51.276;7.116;2023-07-31T04:11:48;4.60;;;1.50;;
20945;SDS011;10632;51.276;7.116;2023-07-31T04:14:16;5.72;;;2.00;;
20945;SDS011;10632;51.276;7.116;2023-07-31T04:16:45;7.50;;;1.65;;
20945;SDS011;10632;51.276;7.116;2023-07-31T04:19:11;8.55;;;1.92;;
20945;SDS011;10632;51.276;7.116;2023-07-31T04:21:41;7.63;;;1.98;;
20945;SDS011;10632;51.276;7.116;2023-07-31T04:24:08;8.63;;;1.70;;
20945;SDS011;10632;51.276;7.116;2023-07-31T04:26:35;6.55;;;1.80;;
20945;SDS011;10632;51.276;7.116;2023-07-31T04:29:03;4.15;;;1.52;;
20945;SDS011;10632;51.276;7.116;2023-07-31T04:31:30;4.47;;;1.58;;
20945;SDS011;10632;51.276;7.116;2023-07-31T04:33:58;5.63;;;1.55;;
20945;SDS011;10632;51.276;7.116;2023-07-31T04:36:25;8.55;;;1.90;;
20945;SDS011;10632;51.276;7.116;2023-07-31T04:38:52;4.57;;;1.63;;
20945;SDS011;10632;51.276;7.116;2023-07-31T04:41:19;5.13;;;1.83;;
20945;SDS011;10632;51.276;7.116;2023-07-31T04:43:46;7.25;;;1.55;;
20945;SDS011;10632;51.276;7.116;2023-07-31T04:46:13;6.00;;;1.65;;
20945;SDS011;10632;51.276;7.116;2023-07-31T04:48:40;7.97;;;1.88;;
20945;SDS011;10632;51.276;7.116;2023-07-31T04:51:08;6.18;;;1.80;;
20945;SDS011;10632;51.276;7.116;2023-07-31T04:53:35;5.93;;;1.77;;
20945;SDS011;10632;51.276;7.116;2023-07-31T04:56:02;5.38;;;2.08;;
20945;SDS011;10632;51.276;7.116;2023-07-31T04:58:29;7.43;;;1.52;;
20945;SDS011;10632;51.276;7.116;2023-07-31T05:00:56;6.45;;;2.13;;
20945;SDS011;10632;51.276;7.116;2023-07-31T05:03:23;9.82;;;2.10;;
20945;SDS011;10632;51.276;7.116;2023-07-31T05:05:50;6.70;;;1.92;;
20945;SDS011;10632;51.276;7.116;2023-07-31T05:08:18;5.90;;;1.80;;
20945;SDS011;10632;51.276;7.116;2023-07-31T05:10:45;4.95;;;1.83;;
20945;SDS011;10632;51.276;7.116;2023-07-31T05:13:12;5.38;;;1.90;;
20945;SDS011;10632;51.276;7.116;2023-07-31T05:15:40;6.78;;;1.88;;
20945;SDS011;10632;51.276;7.116;2023-07-31T05:18:07;4.35;;;1.50;;
20945;SDS011;10632;51.276;7.116;2023-07-31T05:20:34;6.05;;;1.67;;
20945;SDS011;10632;51.276;7.116;2023-07-31T05:23:01;4.95;;;1.80;;
20945;SDS011;10632;51.276;7.116;2023-07-31T05:25:29;7.95;;;2.00;;
20945;SDS011;10632;51.276;7.116;2023-07-31T05:27:59;7.70;;;1.95;;
20945;SDS011;10632;51.276;7.116;2023-07-31T05:30:26;7.38;;;1.80;;
20945;SDS011;10632;51.276;7.116;2023-07-31T05:32:53;7.60;;;2.20;;
20945;SDS011;10632;51.276;7.116;2023-07-31T05:35:20;8.93;;;2.20;;
20945;SDS011;10632;51.276;7.116;2023-07-31T05:37:46;8.93;;;2.10;;
20945;SDS011;10632;51.276;7.116;2023-07-31T05:40:14;7.97;;;2.15;;
20945;SDS011;10632;51.276;7.116;2023-07-31T05:42:42;7.18;;;1.98;;
20945;SDS011;10632;51.276;7.116;2023-07-31T05:45:09;5.65;;;2.15;;
20945;SDS011;10632;51.276;7.116;2023-07-31T05:47:37;6.40;;;2.15;;
20945;SDS011;10632;51.276;7.116;2023-07-31T05:50:04;9.50;;;1.98;;
20945;SDS011;10632;51.276;7.116;2023-07-31T05:52:32;7.28;;;2.25;;
20945;SDS011;10632;51.276;7.116;2023-07-31T05:54:58;7.85;;;2.10;;
20945;SDS011;10632;51.276;7.116;2023-07-31T05:57:26;8.45;;;2.42;;
20945;SDS011;10632;51.276;7.116;2023-07-31T05:59:54;5.47;;;2.00;;
20945;SDS011;10632;51.276;7.116;2023-07-31T06:02:21;7.03;;;2.03;;
20945;SDS011;10632;51.276;7.116;2023-07-31T06:04:48;5.55;;;1.95;;
20945;SDS011;10632;51.276;7.116;2023-07-31T06:07:15;8.48;;;1.67;;
20945;SDS011;10632;51.276;7.116;2023-07-31T06:09:42;5.93;;;2.22;;
20945;SDS011;10632;51.276;7.116;2023-07-31T06:12:09;5.30;;;2.03;;
20945;SDS011;10632;51.276;7.116;2023-07-31T06:14:36;8.00;;;2.10;;
20945;SDS011;10632;51.276;7.116;2023-07-31T06:17:05;7.03;;;2.25;;
20945;SDS011;10632;51.276;7.116;2023-07-31T06:19:32;6.18;;;2.10;;
20945;SDS011;10632;51.276;7.116;2023-07-31T06:21:59;8.48;;;2.20;;
20945;SDS011;10632;51.276;7.116;2023-07-31T06:24:25;6.10;;;1.60;;
20945;SDS011;10632;51.276;7.116;2023-07-31T06:26:55;6.05;;;1.60;;
20945;SDS011;10632;51.276;7.116;2023-07-31T06:29:22;6.75;;;1.60;;
20945;SDS011;10632;51.276;7.116;2023-07-31T06:31:49;6.28;;;1.80;;
20945;SDS011;10632;51.276;7.116;2023-07-31T06:34:18;4.15;;;1.75;;
20945;SDS011;10632;51.276;7.116;2023-07-31T06:36:44;6.50;;;1.98;;
20945;SDS011;10632;51.276;7.116;2023-07-31T06:39:11;8.40;;;1.90;;
20945;SDS011;10632;51.276;7.116;2023-07-31T06:41:38;4.50;;;1.73;;
20945;SDS011;10632;51.276;7.116;2023-07-31T06:44:05;6.35;;;2.20;;
20945;SDS011;10632;51.276;7.116;2023-07-31T06:46:32;4.68;;;1.52;;
20945;SDS011;10632;51.276;7.116;2023-07-31T06:49:02;6.65;;;1.98;;
20945;SDS011;10632;51.276;7.116;2023-07-31T06:51:31;6.97;;;1.75;;
20945;SDS011;10632;51.276;7.116;2023-07-31T06:54:03;6.82;;;1.85;;
20945;SDS011;10632;51.276;7.116;2023-07-31T06:56:30;4.93;;;2.00;;
20945;SDS011;10632;51.276;7.116;2023-07-31T06:58:57;5.40;;;2.00;;
20945;SDS011;10632;51.276;7.116;2023-07-31T07:01:24;5.22;;;1.75;;
20945;SDS011;10632;51.276;7.116;2023-07-31T07:03:51;4.03;;;1.48;;
20945;SDS011;10632;51.276;7.116;2023-07-31T07:06:18;7.90;;;1.63;;
20945;SDS011;10632;51.276;7.116;2023-07-31T07:08:46;7.82;;;1.60;;
20945;SDS011;10632;51.276;7.116;2023-07-31T07:11:16;5.90;;;1.75;;
20945;SDS011;10632;51.276;7.116;2023-07-31T07:13:43;9.13;;;1.70;;
20945;SDS011;10632;51.276;7.116;2023-07-31T07:16:10;6.45;;;2.00;;
20945;SDS011;10632;51.276;7.116;2023-07-31T07:18:37;4.75;;;1.50;;
20945;SDS011;10632;51.276;7.116;2023-07-31T07:21:04;4.88;;;1.52;;
20945;SDS011;10632;51.276;7.116;2023-07-31T07:23:30;5.45;;;1.88;;
20945;SDS011;10632;51.276;7.116;2023-07-31T07:25:59;8.38;;;1.60;;
20945;SDS011;10632;51.276;7.116;2023-07-31T07:28:26;6.18;;;1.92;;
20945;SDS011;10632;51.276;7.116;2023-07-31T07:30:53;5.70;;;1.80;;
20945;SDS011;10632;51.276;7.116;2023-07-31T07:33:20;5.57;;;1.77;;
20945;SDS011;10632;51.276;7.116;2023-07-31T07:35:47;5.38;;;1.83;;
20945;SDS011;10632;51.276;7.116;2023-07-31T07:38:14;6.35;;;1.70;;
20945;SDS011;10632;51.276;7.116;2023-07-31T07:40:41;6.75;;;1.77;;
20945;SDS011;10632;51.276;7.116;2023-07-31T07:43:09;6.15;;;2.00;;
20945;SDS011;10632;51.276;7.116;2023-07-31T07:45:36;6.47;;;1.60;;
20945;SDS011;10632;51.276;7.116;2023-07-31T07:48:03;7.18;;;1.85;;
20945;SDS011;10632;51.276;7.116;2023-07-31T07:50:31;6.57;;;1.80;;
20945;SDS011;10632;51.276;7.116;2023-07-31T07:53:02;11.82;;;1.90;;
20945;SDS011;10632;51.276;7.116;2023-07-31T07:55:29;7.30;;;2.45;;
20945;SDS011;10632;51.276;7.116;2023-07-31T07:57:55;4.78;;;1.90;;
20945;SDS011;10632;51.276;7.116;2023-07-31T08:00:24;5.75;;;1.92;;
20945;SDS011;10632;51.276;7.116;2023-07-31T08:02:50;6.70;;;2.10;;
20945;SDS011;10632;51.276;7.116;2023-07-31T08:05:17;6.03;;;1.58;;
20945;SDS011;10632;51.276;7.116;2023-07-31T08:07:44;4.18;;;1.65;;
20945;SDS011;10632;51.276;7.116;2023-07-31T08:10:11;6.35;;;1.70;;
20945;SDS011;10632;51.276;7.116;2023-07-31T08:12:38;5.45;;;2.00;;
20945;SDS011;10632;51.276;7.116;2023-07-31T08:15:05;4.25;;;1.60;;
20945;SDS011;10632;51.276;7.116;2023-07-31T08:17:34;3.58;;;1.27;;
20945;SDS011;10632;51.276;7.116;2023-07-31T08:20:01;4.35;;;1.67;;
20945;SDS011;10632;51.276;7.116;2023-07-31T08:22:28;3.17;;;1.50;;
20945;SDS011;10632;51.276;7.116;2023-07-31T08:24:55;4.35;;;1.60;;
20945;SDS011;10632;51.276;7.116;2023-07-31T08:27:22;6.20;;;1.63;;
20945;SDS011;10632;51.276;7.116;2023-07-31T08:29:49;5.13;;;1.63;;
20945;SDS011;10632;51.276;7.116;2023-07-31T08:32:17;3.67;;;1.40;;
20945;SDS011;10632;51.276;7.116;2023-07-31T08:34:46;6.93;;;1.90;;
20945;SDS011;10632;51.276;7.116;2023-07-31T08:37:12;3.95;;;1.55;;
20945;SDS011;10632;51.276;7.116;2023-07-31T08:39:40;6.57;;;2.00;;
20945;SDS011;10632;51.276;7.116;2023-07-31T08:42:09;6.65;;;1.80;;
20945;SDS011;10632;51.276;7.116;2023-07-31T08:44:36;4.53;;;1.55;;
20945;SDS011;10632;51.276;7.116;2023-07-31T08:47:07;6.00;;;1.95;;
20945;SDS011;10632;51.276;7.116;2023-07-31T08:49:35;4.57;;;1.40;;
20945;SDS011;10632;51.276;7.116;2023-07-31T08:52:08;3.00;;;1.35;;
20945;SDS011;10632;51.276;7.116;2023-07-31T08:54:36;5.38;;;1.50;;
20945;SDS011;10632;51.276;7.116;2023-07-31T08:57:03;5.90;;;1.70;;
20945;SDS011;10632;51.276;7.116;2023-07-31T08:59:31;2.65;;;1.38;;
20945;SDS011;10632;51.276;7.116;2023-07-31T09:02:02;5.20;;;1.67;;
20945;SDS011;10632;51.276;7.116;2023-07-31T09:04:32;3.15;;;1.30;;
20945;SDS011;10632;51.276;7.116;2023-07-31T09:06:59;4.53;;;1.58;;
20945;SDS011;10632;51.276;7.116;2023-07-31T09:09:29;8.52;;;1.95;;
20945;SDS011;10632;51.276;7.116;2023-07-31T09:11:57;5.82;;;1.90;;
20945;SDS011;10632;51.276;7.116;2023-07-31T09:14:24;5.88;;;1.77;;
20945;SDS011;10632;51.276;7.116;2023-07-31T09:16:52;7.45;;;2.00;;
20945;SDS011;10632;51.276;7.116;2023-07-31T09:19:24;6.82;;;1.88;;
20945;SDS011;10632;51.276;7.116;2023-07-31T09:21:52;4.82;;;1.67;;
20945;SDS011;10632;51.276;7.116;2023-07-31T09:24:24;5.85;;;1.75;;
20945;SDS011;10632;51.276;7.116;2023-07-31T09:26:54;6.70;;;1.80;;
20945;SDS011;10632;51.276;7.116;2023-07-31T09:29:22;5.60;;;1.75;;
20945;SDS011;10632;51.276;7.116;2023-07-31T09:31:49;6.53;;;1.85;;
20945;SDS011;10632;51.276;7.116;2023-07-31T09:34:16;4.38;;;1.50;;
20945;SDS011;10632;51.276;7.116;2023-07-31T09:36:44;5.75;;;1.70;;
20945;SDS011;10632;51.276;7.116;2023-07-31T09:39:12;4.82;;;1.70;;
20945;SDS011;10632;51.276;7.116;2023-07-31T09:41:42;4.82;;;1.60;;
20945;SDS011;10632;51.276;7.116;2023-07-31T09:44:12;4.05;;;1.40;;
20945;SDS011;10632;51.276;7.116;2023-07-31T09:46:39;3.90;;;1.63;;
20945;SDS011;10632;51.276;7.116;2023-07-31T09:49:09;6.32;;;1.50;;
20945;SDS011;10632;51.276;7.116;2023-07-31T09:51:37;5.38;;;1.60;;
20945;SDS011;10632;51.276;7.116;2023-07-31T09:54:09;4.45;;;1.50;;
20945;SDS011;10632;51.276;7.116;2023-07-31T09:56:38;4.68;;;1.88;;
20945;SDS011;10632;51.276;7.116;2023-07-31T09:59:08;3.95;;;1.80;;
20945;SDS011;10632;51.276;7.116;2023-07-31T10:01:39;9.32;;;1.95;;
20945;SDS011;10632;51.276;7.116;2023-07-31T10:04:11;3.63;;;1.35;;
20945;SDS011;10632;51.276;7.116;2023-07-31T10:06:39;6.13;;;1.60;;
20945;SDS011;10632;51.276;7.116;2023-07-31T10:09:09;4.40;;;1.58;;
20945;SDS011;10632;51.276;7.116;2023-07-31T10:11:38;4.30;;;1.58;;
20945;SDS011;10632;51.276;7.116;2023-07-31T10:14:09;5.10;;;1.48;;
20945;SDS011;10632;51.276;7.116;2023-07-31T10:16:38;5.25;;;1.55;;
20945;SDS011;10632;51.276;7.116;2023-07-31T10:19:08;4.90;;;1.55;;
20945;SDS011;10632;51.276;7.116;2023-07-31T10:21:36;7.25;;;1.58;;
20945;SDS011;10632;51.276;7.116;2023-07-31T10:24:04;3.83;;;1.40;;
20945;SDS011;10632;51.276;7.116;2023-07-31T10:26:31;4.82;;;1.58;;
20945;SDS011;10632;51.276;7.116;2023-07-31T10:29:00;3.33;;;1.17;;
20945;SDS011;10632;51.276;7.116;2023-07-31T10:31:28;3.95;;;1.50;;
20945;SDS011;10632;51.276;7.116;2023-07-31T10:33:57;3.42;;;1.58;;
20945;SDS011;10632;51.276;7.116;2023-07-31T10:36:25;4.35;;;1.48;;
20945;SDS011;10632;51.276;7.116;2023-07-31T10:38:52;3.25;;;1.35;;
20945;SDS011;10632;51.276;7.116;2023-07-31T10:41:27;4.30;;;1.75;;
20945;SDS011;10632;51.276;7.116;2023-07-31T10:43:57;6.65;;;1.50;;
20945;SDS011;10632;51.276;7.116;2023-07-31T10:46:24;6.28;;;1.77;;
20945;SDS011;10632;51.276;7.116;2023-07-31T10:49:03;4.00;;;1.73;;
20945;SDS011;10632;51.276;7.116;2023-07-31T10:51:33;7.95;;;1.70;;
20945;SDS011;10632;51.276;7.116;2023-07-31T10:54:10;6.00;;;2.17;;
20945;SDS011;10632;51.276;7.116;2023-07-31T10:56:38;4.97;;;2.10;;
20945;SDS011;10632;51.276;7.116;2023-07-31T10:59:05;7.43;;;1.90;;
20945;SDS011;10632;51.276;7.116;2023-07-31T11:01:50;3.97;;;1.60;;
20945;SDS011;10632;51.276;7.116;2023-07-31T11:04:23;7.30;;;1.75;;
20945;SDS011;10632;51.276;7.116;2023-07-31T11:06:57;6.40;;;1.73;;
20945;SDS011;10632;51.276;7.116;2023-07-31T11:09:24;3.67;;;1.83;;
20945;SDS011;10632;51.276;7.116;2023-07-31T11:11:54;6.80;;;2.22;;
20945;SDS011;10632;51.276;7.116;2023-07-31T11:14:22;5.10;;;2.03;;
20945;SDS011;10632;51.276;7.116;2023-07-31T11:16:49;7.38;;;2.10;;
20945;SDS011;10632;51.276;7.116;2023-07-31T11:19:21;4.75;;;1.92;;
20945;SDS011;10632;51.276;7.116;2023-07-31T11:21:50;4.82;;;1.65;;
20945;SDS011;10632;51.276;7.116;2023-07-31T11:24:18;5.65;;;1.83;;
20945;SDS011;10632;51.276;7.116;2023-07-31T11:26:49;5.22;;;1.65;;
20945;SDS011;10632;51.276;7.116;2023-07-31T11:29:16;5.00;;;1.45;;
20945;SDS011;10632;51.276;7.116;2023-07-31T11:31:44;4.50;;;1.65;;
20945;SDS011;10632;51.276;7.116;2023-07-31T11:34:11;7.13;;;1.63;;
20945;SDS011;10632;51.276;7.116;2023-07-31T11:36:39;4.63;;;1.70;;
20945;SDS011;10632;51.276;7.116;2023-07-31T11:39:07;4.03;;;1.38;;
20945;SDS011;10632;51.276;7.116;2023-07-31T11:41:40;5.10;;;1.50;;
20945;SDS011;10632;51.276;7.116;2023-07-31T11:44:07;7.18;;;1.60;;
20945;SDS011;10632;51.276;7.116;2023-07-31T11:46:34;6.65;;;1.70;;
20945;SDS011;10632;51.276;7.116;2023-07-31T11:49:02;2.95;;;1.10;;
20945;SDS011;10632;51.276;7.116;2023-07-31T11:51:29;6.13;;;1.50;;
20945;SDS011;10632;51.276;7.116;2023-07-31T11:53:58;3.30;;;1.30;;
20945;SDS011;10632;51.276;7.116;2023-07-31T11:56:27;3.33;;;1.17;;
20945;SDS011;10632;51.276;7.116;2023-07-31T11:58:58;2.33;;;1.08;;
20945;SDS011;10632;51.276;7.116;2023-07-31T12:01:27;2.45;;;1.00;;
20945;SDS011;10632;51.276;7.116;2023-07-31T12:03:55;4.25;;;1.10;;
20945;SDS011;10632;51.276;7.116;2023-07-31T12:06:26;2.47;;;1.00;;
20945;SDS011;10632;51.276;7.116;2023-07-31T12:09:01;4.70;;;1.00;;
20945;SDS011;10632;51.276;7.116;2023-07-31T12:11:30;2.75;;;0.90;;
20945;SDS011;10632;51.276;7.116;2023-07-31T12:13:57;1.95;;;0.90;;
20945;SDS011;10632;51.276;7.116;2023-07-31T12:16:25;4.00;;;1.20;;
20945;SDS011;10632;51.276;7.116;2023-07-31T12:18:53;3.35;;;1.15;;
20945;SDS011;10632;51.276;7.116;2023-07-31T12:21:20;3.10;;;1.10;;
20945;SDS011;10632;51.276;7.116;2023-07-31T12:23:47;1.77;;;0.85;;
20945;SDS011;10632;51.276;7.116;2023-07-31T12:26:15;2.50;;;1.05;;
20945;SDS011;10632;51.276;7.116;2023-07-31T12:28:43;1.67;;;0.70;;
20945;SDS011;10632;51.276;7.116;2023-07-31T12:31:12;1.92;;;0.70;;
20945;SDS011;10632;51.276;7.116;2023-07-31T12:33:40;2.75;;;0.82;;
20945;SDS011;10632;51.276;7.116;2023-07-31T12:36:08;3.65;;;1.00;;
20945;SDS011;10632;51.276;7.116;2023-07-31T12:38:36;2.95;;;0.75;;
20945;SDS011;10632;51.276;7.116;2023-07-31T12:41:03;2.70;;;0.93;;
20945;SDS011;10632;51.276;7.116;2023-07-31T12:43:33;1.73;;;0.88;;
20945;SDS011;10632;51.276;7.116;2023-07-31T12:46:00;2.08;;;0.90;;
20945;SDS011;10632;51.276;7.116;2023-07-31T12:48:27;2.13;;;1.08;;
20945;SDS011;10632;51.276;7.116;2023-07-31T12:50:54;5.13;;;1.13;;
20945;SDS011;10632;51.276;7.116;2023-07-31T12:53:21;2.20;;;1.08;;
20945;SDS011;10632;51.276;7.116;2023-07-31T12:55:48;2.88;;;1.10;;
20945;SDS011;10632;51.276;7.116;2023-07-31T12:58:15;4.68;;;1.10;;
20945;SDS011;10632;51.276;7.116;2023-07-31T13:00:43;2.78;;;1.05;;
20945;SDS011;10632;51.276;7.116;2023-07-31T13:03:10;2.50;;;1.20;;
20945;SDS011;10632;51.276;7.116;2023-07-31T13:05:37;2.10;;;1.08;;
20945;SDS011;10632;51.276;7.116;2023-07-31T13:08:04;2.15;;;1.05;;
20945;SDS011;10632;51.276;7.116;2023-07-31T13:10:31;7.07;;;1.38;;
20945;SDS011;10632;51.276;7.116;2023-07-31T13:12:59;3.38;;;1.30;;
20945;SDS011;10632;51.276;7.116;2023-07-31T13:15:26;2.88;;;1.30;;
20945;SDS011;10632;51.276;7.116;2023-07-31T13:17:58;2.47;;;1.10;;
20945;SDS011;10632;51.276;7.116;2023-07-31T13:20:25;2.80;;;1.15;;
20945;SDS011;10632;51.276;7.116;2023-07-31T13:22:51;2.22;;;1.00;;
20945;SDS011;10632;51.276;7.116;2023-07-31T13:25:18;4.03;;;1.48;;
20945;SDS011;10632;51.276;7.116;2023-07-31T13:27:45;3.03;;;1.25;;
20945;SDS011;10632;51.276;7.116;2023-07-31T13:30:12;8.68;;;1.20;;
20945;SDS011;10632;51.276;7.116;2023-07-31T13:32:39;3.05;;;1.27;;
20945;SDS011;10632;51.276;7.116;2023-07-31T13:35:08;3.38;;;1.38;;
20945;SDS011;10632;51.276;7.116;2023-07-31T13:37:36;2.72;;;1.30;;
20945;SDS011;10632;51.276;7.116;2023-07-31T13:40:03;5.47;;;1.50;;
20945;SDS011;10632;51.276;7.116;2023-07-31T13:42:31;3.67;;;1.58;;
20945;SDS011;10632;51.276;7.116;2023-07-31T13:44:58;5.93;;;1.45;;
20945;SDS011;10632;51.276;7.116;2023-07-31T13:47:25;4.43;;;1.50;;
20945;SDS011;10632;51.276;7.116;2023-07-31T13:49:52;5.80;;;1.60;;
20945;SDS011;10632;51.276;7.116;2023-07-31T13:52:20;5.63;;;1.33;;
20945;SDS011;10632;51.276;7.116;2023-07-31T13:54:47;5.32;;;1.90;;
20945;SDS011;10632;51.276;7.116;2023-07-31T13:57:14;6.57;;;1.70;;
20945;SDS011;10632;51.276;7.116;2023-07-31T13:59:42;3.60;;;1.45;;
20945;SDS011;10632;51.276;7.116;2023-07-31T14:02:09;5.07;;;1.90;;
20945;SDS011;10632;51.276;7.116;2023-07-31T14:04:35;5.13;;;1.88;;
20945;SDS011;10632;51.276;7.116;2023-07-31T14:07:02;5.13;;;1.48;;
20945;SDS011;10632;51.276;7.116;2023-07-31T14:09:31;6.80;;;1.65;;
20945;SDS011;10632;51.276;7.116;2023-07-31T14:12:01;3.88;;;1.63;;
20945;SDS011;10632;51.276;7.116;2023-07-31T14:14:31;3.85;;;1.45;;
20945;SDS011;10632;51.276;7.116;2023-07-31T14:16:59;5.88;;;1.75;;
20945;SDS011;10632;51.276;7.116;2023-07-31T14:19:25;5.95;;;1.90;;
20945;SDS011;10632;51.276;7.116;2023-07-31T14:21:52;3.40;;;1.52;;
20945;SDS011;10632;51.276;7.116;2023-07-31T14:24:22;4.15;;;1.60;;
20945;SDS011;10632;51.276;7.116;2023-07-31T14:26:50;4.40;;;1.70;;
20945;SDS011;10632;51.276;7.116;2023-07-31T14:29:18;5.00;;;1.73;;
20945;SDS011;10632;51.276;7.116;2023-07-31T14:31:44;6.10;;;1.60;;
20945;SDS011;10632;51.276;7.116;2023-07-31T14:34:11;5.88;;;1.83;;
20945;SDS011;10632;51.276;7.116;2023-07-31T14:36:38;3.45;;;1.40;;
20945;SDS011;10632;51.276;7.116;2023-07-31T14:39:05;3.70;;;1.40;;
20945;SDS011;10632;51.276;7.116;2023-07-31T14:41:32;3.65;;;1.48;;
20945;SDS011;10632;51.276;7.116;2023-07-31T14:44:02;4.90;;;1.63;;
20945;SDS011;10632;51.276;7.116;2023-07-31T14:46:28;4.00;;;1.30;;
20945;SDS011;10632;51.276;7.116;2023-07-31T14:48:55;4.43;;;1.27;;
20945;SDS011;10632;51.276;7.116;2023-07-31T14:51:22;3.97;;;1.50;;
20945;SDS011;10632;51.276;7.116;2023-07-31T14:53:49;5.13;;;1.30;;